ZF1RC George Town KY current weather conditions

sailwx.info

Wind from 105 at 1 knots gusting 1

Air temperature 26.7° C
Dewpoint 23.1° C

Last reported at 2014-Sep-20 02:51 UTC.
Time now 2014-Sep-20 03:58 UTC

Location: N 19°16' W 081°23'.
View on Google Maps.

See reports from other nearby stations

  
Tides and Currents Weather Stations Pressure Air Temp Water Temp Dewpoint Dewpoint Depression Visibility Wind Speed Wind Dir Waves Ship Positions
date/time (UTC)wind fromknots sea level pressurealtimeterstation pressurevisibilityair tempwater tempwave heightnotes
2014-Sep-20 02:51 105 1 gusting 1 26.7
2014-Sep-20 02:41 098 1 gusting 2 26.7
2014-Sep-20 02:31 103 1 gusting 1 26.7
2014-Sep-20 02:21 100 1 gusting 1 26.7
2014-Sep-20 02:11 087 1 gusting 2 26.7
2014-Sep-20 02:01 078 1 gusting 1 26.7
2014-Sep-20 01:51 098 1 gusting 2 26.7
2014-Sep-20 01:41 073 1 gusting 2 26.7
2014-Sep-20 01:31 093 1 gusting 1 26.7
2014-Sep-20 01:21 089 1 gusting 2 27.2
2014-Sep-20 01:11 108 2 gusting 2 27.2
2014-Sep-20 01:01 095 1 gusting 2 27.2
2014-Sep-20 00:51 071 1 gusting 1 27.2
2014-Sep-20 00:41 079 2 gusting 2 27.2
2014-Sep-20 00:31 071 2 gusting 4 27.8
2014-Sep-20 00:21 080 2 gusting 5 27.8
2014-Sep-20 00:11 099 1 gusting 2 27.8
2014-Sep-20 00:01 095 2 gusting 5 27.8
2014-Sep-19 23:51 099 0 gusting 4 27.8
2014-Sep-19 23:41 112 27.8
2014-Sep-19 23:31 146 27.8
2014-Sep-19 23:21 168 28.3
2014-Sep-19 23:11 118 28.3
2014-Sep-19 23:01 232 28.3
2014-Sep-19 22:54 229 0 gusting 0 28.9
2014-Sep-19 22:51 001 28.9
2014-Sep-19 22:41 167 29.4
2014-Sep-19 22:31 166 29.4
2014-Sep-19 22:21 074 29.4
2014-Sep-19 22:11 121 1 gusting 4 29.4
2014-Sep-19 22:01 059 29.4
2014-Sep-19 21:51 109 30.0
2014-Sep-19 21:41 064 30.0
2014-Sep-19 21:31 130 0 gusting 5 30.0
2014-Sep-19 21:21 138 0 gusting 2 30.6
2014-Sep-19 21:11 123 0 gusting 4 30.0
2014-Sep-19 21:01 123 0 gusting 1 29.4
2014-Sep-19 20:51 201 0 gusting 0 30.0
2014-Sep-19 20:41 134 29.4
2014-Sep-19 20:31 183 29.4
2014-Sep-19 20:21 276 0 gusting 0 28.9
2014-Sep-19 20:11 088 1 gusting 1 28.9
2014-Sep-19 20:01 074 1 gusting 2 28.9
2014-Sep-19 19:51 110 0 gusting 2 28.9
2014-Sep-19 19:41 131 0 gusting 4 28.9
2014-Sep-19 19:31 119 0 gusting 1 28.9
2014-Sep-19 19:21 090 1 gusting 2 29.4
2014-Sep-19 19:11 008 29.4
2014-Sep-19 19:01 170 1 gusting 1 30.6
2014-Sep-19 18:51 138 30.0
2014-Sep-19 18:41 121 1 gusting 6 30.0
2014-Sep-19 18:31 189 0 gusting 4 30.6
2014-Sep-19 18:21 153 0 gusting 7 31.1
2014-Sep-19 18:11 182 2 gusting 5 31.1
2014-Sep-19 18:01 183 2 gusting 4 30.6
2014-Sep-19 17:51 127 30.6
2014-Sep-19 17:41 017 30.0
2014-Sep-19 17:31 259 30.0
2014-Sep-19 17:21 136 1 gusting 2 30.0
2014-Sep-19 17:11 080 0 gusting 4 30.6
2014-Sep-19 17:01 128 0 gusting 2 30.6
2014-Sep-19 16:51 152 0 gusting 2 30.6
2014-Sep-19 16:41 035 31.1
2014-Sep-19 16:21 145 31.1
2014-Sep-19 16:11 151 1 gusting 1 31.1
2014-Sep-19 16:01 160 1 gusting 1 31.1
2014-Sep-19 15:51 127 0 gusting 2 31.1
2014-Sep-19 15:41 169 0 gusting 1 31.1
2014-Sep-19 15:31 154 2 gusting 2 30.6
2014-Sep-19 15:21 076 1 gusting 2 30.6
2014-Sep-19 15:11 096 1 gusting 4 30.6
2014-Sep-19 15:01 216 1 gusting 2 30.6
2014-Sep-19 14:51 116 0 gusting 4 30.6
2014-Sep-19 14:41 104 30.6
2014-Sep-19 14:31 205 0 gusting 2 30.0
2014-Sep-19 14:21 071 2 gusting 5 30.0
2014-Sep-19 14:11 184 30.0
2014-Sep-19 14:01 146 0 gusting 5 30.0
2014-Sep-19 13:51 168 30.0
2014-Sep-19 13:41 219 29.4
2014-Sep-19 13:31 148 0 gusting 2 29.4
2014-Sep-19 13:21 110 28.9
2014-Sep-19 13:11 107 28.3
2014-Sep-19 13:01 091 1 gusting 4 28.3
2014-Sep-19 12:51 119 1 gusting 4 27.8
2014-Sep-19 12:41 147 2 gusting 4 27.8
2014-Sep-19 12:31 110 0 gusting 2 27.2
2014-Sep-19 12:21 102 1 gusting 1 26.7
2014-Sep-19 12:11 089 0 gusting 1 26.7
2014-Sep-19 12:01 073 0 gusting 0 26.1
2014-Sep-19 11:51 051 0 gusting 1 25.6
2014-Sep-19 11:41 073 0 gusting 0 25.6
2014-Sep-19 11:31 043 0 gusting 0 25.0
2014-Sep-19 11:21 071 0 gusting 0 25.0
2014-Sep-19 11:11 090 0 gusting 0 25.0
2014-Sep-19 11:01 075 1 gusting 1 25.0
2014-Sep-19 10:51 082 0 gusting 1 25.0
2014-Sep-19 10:41 090 0 gusting 1 25.0
2014-Sep-19 10:31 097 1 gusting 1 25.0
2014-Sep-19 10:21 098 0 gusting 1 25.0
2014-Sep-19 10:11 084 1 gusting 1 25.0
2014-Sep-19 10:01 088 0 gusting 0 25.0
2014-Sep-19 09:51 060 0 gusting 0 25.0
2014-Sep-19 09:41 098 0 gusting 0 25.0
2014-Sep-19 09:31 077 0 gusting 0 25.0
2014-Sep-19 09:21 073 0 gusting 0 25.0
2014-Sep-19 09:11 074 0 gusting 0 25.0
2014-Sep-19 09:01 066 0 gusting 0 25.0
2014-Sep-19 08:51 055 0 gusting 0 25.6
2014-Sep-19 08:41 042 0 gusting 0 25.0
2014-Sep-19 08:31 037 25.0
2014-Sep-19 08:21 058 25.6
2014-Sep-19 08:11 049 0 gusting 0 25.6
2014-Sep-19 08:01 063 0 gusting 0 25.0
2014-Sep-19 07:51 067 25.0
2014-Sep-19 07:41 059 0 gusting 1 25.0
2014-Sep-19 07:31 061 1 gusting 1 25.0
2014-Sep-19 07:21 025 0 gusting 0 25.0
2014-Sep-19 07:11 045 0 gusting 0 25.0
2014-Sep-19 07:01 093 0 gusting 1 25.0
2014-Sep-19 06:51 078 0 gusting 0 25.0
2014-Sep-19 06:41 041 0 gusting 0 25.0
2014-Sep-19 06:31 093 25.0
2014-Sep-19 06:21 101 0 gusting 0 25.0
2014-Sep-19 06:11 102 25.6
2014-Sep-19 06:01 082 0 gusting 0 25.6
2014-Sep-19 05:51 046 0 gusting 0 25.6
2014-Sep-19 05:41 042 0 gusting 0 25.6
2014-Sep-19 05:31 080 1 gusting 1 25.6
2014-Sep-19 05:21 079 0 gusting 0 25.6
2014-Sep-19 05:10 064 0 gusting 1 25.6
2014-Sep-19 05:01 084 1 gusting 1 25.6
2014-Sep-19 04:51 052 0 gusting 1 25.6
2014-Sep-19 04:41 089 1 gusting 1 25.6
2014-Sep-19 04:31 081 0 gusting 0 25.6
2014-Sep-19 04:21 084 0 gusting 1 25.6
2014-Sep-19 04:11 094 0 gusting 1 26.1
2014-Sep-19 04:01 123 26.1
2014-Sep-19 03:51 099 1 gusting 1 26.1
2014-Sep-19 03:41 098 1 gusting 1 26.1
2014-Sep-19 03:31 088 0 gusting 1 26.1
2014-Sep-19 03:21 103 25.6
2014-Sep-19 03:11 095 0 gusting 1 26.1
2014-Sep-19 03:01 105 0 gusting 0 26.1
2014-Sep-19 02:51 094 0 gusting 0 26.1
2014-Sep-19 02:41 086 0 gusting 0 26.1
2014-Sep-19 02:31 075 0 gusting 0 26.1
2014-Sep-19 02:21 036 0 gusting 1 26.1
2014-Sep-19 02:11 099 0 gusting 1 26.7
2014-Sep-19 02:01 099 0 gusting 0 26.1
2014-Sep-19 01:51 082 0 gusting 1 26.7
2014-Sep-19 01:41 081 1 gusting 1 26.7
2014-Sep-19 01:31 107 1 gusting 1 26.7
2014-Sep-19 01:21 096 0 gusting 2 26.7
2014-Sep-19 01:11 075 0 gusting 1 26.7
2014-Sep-19 01:01 081 1 gusting 1 26.7
2014-Sep-19 00:51 097 1 gusting 1 26.7
2014-Sep-19 00:41 095 1 gusting 1 26.7
2014-Sep-19 00:31 089 0 gusting 1 26.7
2014-Sep-19 00:21 090 27.2
2014-Sep-19 00:11 109 27.2
2014-Sep-19 00:01 124 0 gusting 0 27.2
2014-Sep-18 23:51 092 1 gusting 1 27.2
2014-Sep-18 23:41 101 1 gusting 2 27.8
2014-Sep-18 23:31 103 27.8
2014-Sep-18 23:21 124 0 gusting 1 27.8
2014-Sep-18 23:11 138 28.3
2014-Sep-18 23:01 154 0 gusting 2 28.3
2014-Sep-18 22:54 099 0 gusting 0 28.3
2014-Sep-18 22:51 102 0 gusting 1 28.3
2014-Sep-18 22:41 095 1 gusting 1 28.9
2014-Sep-18 22:31 048 0 gusting 2 28.9
2014-Sep-18 22:21 127 0 gusting 5 29.4
2014-Sep-18 22:11 059 1 gusting 5 29.4
2014-Sep-18 22:01 029 1 gusting 1 28.9
2014-Sep-18 21:51 107 1 gusting 2 28.9
2014-Sep-18 21:41 070 0 gusting 1 29.4
2014-Sep-18 21:31 132 0 gusting 1 29.4
2014-Sep-18 21:21 184 0 gusting 1 30.0
2014-Sep-18 21:11 216 30.6
2014-Sep-18 21:01 113 30.6
2014-Sep-18 20:51 100 30.6
2014-Sep-18 20:41 143 0 gusting 1 30.0
2014-Sep-18 20:31 069 1 gusting 4 30.0
2014-Sep-18 20:21 079 0 gusting 1 30.0
2014-Sep-18 20:11 076 0 gusting 2 30.0
2014-Sep-18 20:01 200 0 gusting 2 30.0
2014-Sep-18 19:51 122 0 gusting 1 30.0
2014-Sep-18 19:41 177 0 gusting 0 30.0
2014-Sep-18 19:31 265 0 gusting 5 29.4
2014-Sep-18 19:21 166 30.6
2014-Sep-18 19:11 192 4 gusting 6 31.1
2014-Sep-18 19:01 060 30.6
2014-Sep-18 18:51 150 31.1
2014-Sep-18 18:41 033 2 gusting 5 30.6
2014-Sep-18 18:31 145 2 gusting 5 30.6
2014-Sep-18 18:21 106 2 gusting 6 30.6
2014-Sep-18 18:11 124 1 gusting 6 31.1
2014-Sep-18 18:01 190 1 gusting 5 30.6
2014-Sep-18 17:51 122 2 gusting 5 30.6
2014-Sep-18 17:41 162 4 gusting 6 30.6
2014-Sep-18 17:31 168 0 gusting 2 30.6
2014-Sep-18 17:21 202 30.6
2014-Sep-18 17:11 151 1 gusting 7 30.6
2014-Sep-18 17:01 167 3 gusting 6 30.6
2014-Sep-18 16:51 154 2 gusting 4 30.6
2014-Sep-18 16:41 095 1 gusting 6 30.6
2014-Sep-18 16:31 178 1 gusting 2 30.6
2014-Sep-18 16:21 190 3 gusting 4 30.6
2014-Sep-18 16:11 188 1 gusting 6 30.0
2014-Sep-18 16:01 117 30.6
2014-Sep-18 15:51 183 2 gusting 2 31.1
2014-Sep-18 15:41 162 0 gusting 5 30.6
2014-Sep-18 15:31 175 3 gusting 4 30.6
2014-Sep-18 15:21 190 0 gusting 4 30.6
2014-Sep-18 15:11 185 2 gusting 6 30.0
2014-Sep-18 15:01 071 1 gusting 5 30.0
2014-Sep-18 14:51 171 0 gusting 4 30.0
2014-Sep-18 14:41 042 0 gusting 5 30.0
2014-Sep-18 14:31 093 2 gusting 4 30.0
2014-Sep-18 14:21 025 30.6
2014-Sep-18 14:11 126 29.4
2014-Sep-18 14:01 106 29.4
2014-Sep-18 13:51 175 0 gusting 0 30.6
2014-Sep-18 13:41 121 0 gusting 2 29.4
2014-Sep-18 13:31 187 0 gusting 1 29.4
2014-Sep-18 13:21 167 28.9
2014-Sep-18 13:11 106 0 gusting 0 28.3
2014-Sep-18 13:01 168 28.3
2014-Sep-18 12:51 138 27.8
2014-Sep-18 12:41 180 27.8
2014-Sep-18 12:31 101 0 gusting 0 27.2
2014-Sep-18 12:21 073 26.7
2014-Sep-18 12:11 087 26.1
2014-Sep-18 12:01 090 25.6
2014-Sep-18 11:51 070 25.0
2014-Sep-18 11:41 039 24.4
2014-Sep-18 11:31 055 24.4
2014-Sep-18 11:21 043 0 gusting 0 23.9
2014-Sep-18 11:11 029 23.9
2014-Sep-18 11:01 051 23.9
2014-Sep-18 10:51 114 23.9
2014-Sep-18 10:41 113 24.4
2014-Sep-18 10:31 113 24.4
2014-Sep-18 10:21 120 24.4
2014-Sep-18 10:11 120 24.4
2014-Sep-18 10:01 138 24.4
2014-Sep-18 09:51 138 24.4
2014-Sep-18 09:41 138 24.4
2014-Sep-18 09:31 138 25.0
2014-Sep-18 09:21 138 24.4
2014-Sep-18 09:11 138 25.0
2014-Sep-18 09:01 138 24.4
2014-Sep-18 08:51 061 24.4
2014-Sep-18 08:41 056 25.0
2014-Sep-18 08:31 026 25.0
2014-Sep-18 08:21 005 24.4
2014-Sep-18 08:11 157 25.0
2014-Sep-18 08:01 161 25.0
2014-Sep-18 07:51 161 25.0
2014-Sep-18 07:41 161 25.0
2014-Sep-18 07:31 161 25.0
2014-Sep-18 07:21 161 25.0
2014-Sep-18 07:11 161 25.0
2014-Sep-18 07:01 161 25.0
2014-Sep-18 06:51 164 25.0
2014-Sep-18 06:41 164 25.0
2014-Sep-18 06:31 164 25.0
2014-Sep-18 06:21 164 25.0
2014-Sep-18 06:11 038 25.6
2014-Sep-18 06:01 005 25.6
2014-Sep-18 05:51 007 0 gusting 0 25.6
2014-Sep-18 05:41 006 25.6
2014-Sep-18 05:31 330 0 gusting 0 25.6
2014-Sep-18 05:21 176 25.6
2014-Sep-18 05:10 140 26.1
2014-Sep-18 05:01 016 26.1
2014-Sep-18 04:51 174 26.7
2014-Sep-18 04:41 169 0 gusting 0 26.7
2014-Sep-18 04:31 176 26.7
2014-Sep-18 04:21 177 1 gusting 1 26.7
2014-Sep-18 04:11 164 26.7
2014-Sep-18 04:01 133 0 gusting 4 26.7
2014-Sep-18 03:51 165 1 gusting 5 26.7
2014-Sep-18 03:41 173 3 gusting 4 27.2
2014-Sep-18 03:31 140 2 gusting 5 26.7
2014-Sep-18 03:21 069 1 gusting 5 26.7
2014-Sep-18 03:11 117 0 gusting 4 26.7
2014-Sep-18 03:01 176 2 gusting 4 27.2